sensor_id;sensor_type;location;lat;lon;timestamp;pressure;altitude;pressure_sealevel;temperature;humidity
20696;BME280;10507;52.754;13.040;2023-04-08T00:01:43;101844.06;;;5.18;100.00
20696;BME280;10507;52.754;13.040;2023-04-08T00:04:11;101864.34;;;5.23;100.00
20696;BME280;10507;52.754;13.040;2023-04-08T00:06:40;101875.78;;;5.25;100.00
20696;BME280;10507;52.754;13.040;2023-04-08T00:09:08;101874.94;;;5.23;100.00
20696;BME280;10507;52.754;13.040;2023-04-08T00:11:36;101887.25;;;5.24;100.00
20696;BME280;10507;52.754;13.040;2023-04-08T00:14:04;101869.66;;;5.18;100.00
20696;BME280;10507;52.754;13.040;2023-04-08T00:16:32;101882.00;;;5.17;100.00
20696;BME280;10507;52.754;13.040;2023-04-08T00:19:02;101886.47;;;5.12;100.00
20696;BME280;10507;52.754;13.040;2023-04-08T00:21:32;101893.50;;;5.15;100.00
20696;BME280;10507;52.754;13.040;2023-04-08T00:24:00;101927.00;;;5.17;100.00
20696;BME280;10507;52.754;13.040;2023-04-08T00:26:28;101911.16;;;5.16;100.00
20696;BME280;10507;52.754;13.040;2023-04-08T00:28:56;101912.97;;;5.09;100.00
20696;BME280;10507;52.754;13.040;2023-04-08T00:31:24;101922.66;;;5.12;100.00
20696;BME280;10507;52.754;13.040;2023-04-08T00:33:52;101928.81;;;5.12;100.00
20696;BME280;10507;52.754;13.040;2023-04-08T00:36:22;101941.16;;;5.13;100.00
20696;BME280;10507;52.754;13.040;2023-04-08T00:38:50;101942.94;;;5.13;100.00
20696;BME280;10507;52.754;13.040;2023-04-08T00:41:18;101930.56;;;5.15;100.00
20696;BME280;10507;52.754;13.040;2023-04-08T00:43:46;101964.06;;;5.19;100.00
20696;BME280;10507;52.754;13.040;2023-04-08T00:46:14;101964.03;;;5.22;100.00
20696;BME280;10507;52.754;13.040;2023-04-08T00:48:42;101957.91;;;5.17;100.00
20696;BME280;10507;52.754;13.040;2023-04-08T00:51:10;101946.41;;;5.19;100.00
20696;BME280;10507;52.754;13.040;2023-04-08T00:53:40;101942.91;;;5.19;100.00
20696;BME280;10507;52.754;13.040;2023-04-08T00:56:08;101932.31;;;5.17;100.00
20696;BME280;10507;52.754;13.040;2023-04-08T00:58:36;101909.41;;;5.10;100.00
20696;BME280;10507;52.754;13.040;2023-04-08T01:01:09;101943.75;;;5.21;100.00
20696;BME280;10507;52.754;13.040;2023-04-08T01:03:46;101943.75;;;5.19;100.00
20696;BME280;10507;52.754;13.040;2023-04-08T01:06:22;101949.94;;;5.25;100.00
20696;BME280;10507;52.754;13.040;2023-04-08T01:08:58;101934.94;;;5.19;100.00
20696;BME280;10507;52.754;13.040;2023-04-08T01:11:28;101956.09;;;5.22;100.00
20696;BME280;10507;52.754;13.040;2023-04-08T01:14:00;101955.22;;;5.21;100.00
20696;BME280;10507;52.754;13.040;2023-04-08T01:16:33;101935.81;;;5.23;100.00
20696;BME280;10507;52.754;13.040;2023-04-08T01:19:01;101925.28;;;5.16;100.00
20696;BME280;10507;52.754;13.040;2023-04-08T01:21:30;101932.31;;;5.20;100.00
20696;BME280;10507;52.754;13.040;2023-04-08T01:24:05;101922.63;;;5.18;100.00
20696;BME280;10507;52.754;13.040;2023-04-08T01:26:38;101938.47;;;5.23;100.00
20696;BME280;10507;52.754;13.040;2023-04-08T01:29:07;101931.41;;;5.20;100.00
20696;BME280;10507;52.754;13.040;2023-04-08T01:31:38;101930.53;;;5.19;100.00
20696;BME280;10507;52.754;13.040;2023-04-08T01:34:09;101917.31;;;5.18;100.00
20696;BME280;10507;52.754;13.040;2023-04-08T01:36:38;101925.28;;;5.18;100.00
20696;BME280;10507;52.754;13.040;2023-04-08T01:39:08;101922.63;;;5.18;100.00
20696;BME280;10507;52.754;13.040;2023-04-08T01:41:38;101938.47;;;5.19;100.00
20696;BME280;10507;52.754;13.040;2023-04-08T01:44:07;101937.63;;;5.16;100.00
20696;BME280;10507;52.754;13.040;2023-04-08T01:46:37;101954.38;;;5.15;100.00
20696;BME280;10507;52.754;13.040;2023-04-08T01:49:06;101964.06;;;5.20;100.00
20696;BME280;10507;52.754;13.040;2023-04-08T01:51:35;101962.34;;;5.18;100.00
20696;BME280;10507;52.754;13.040;2023-04-08T01:54:04;101972.03;;;5.17;100.00
20696;BME280;10507;52.754;13.040;2023-04-08T01:56:35;101966.75;;;5.13;100.00
20696;BME280;10507;52.754;13.040;2023-04-08T01:59:09;101987.94;;;5.16;100.00
20696;BME280;10507;52.754;13.040;2023-04-08T02:01:38;101981.75;;;5.14;100.00
20696;BME280;10507;52.754;13.040;2023-04-08T02:04:07;101989.72;;;5.12;100.00
20696;BME280;10507;52.754;13.040;2023-04-08T02:06:36;101993.25;;;5.10;100.00
20696;BME280;10507;52.754;13.040;2023-04-08T02:09:04;102008.25;;;5.11;100.00
20696;BME280;10507;52.754;13.040;2023-04-08T02:11:33;102021.47;;;5.14;100.00
20696;BME280;10507;52.754;13.040;2023-04-08T02:14:01;102016.19;;;5.11;100.00
20696;BME280;10507;52.754;13.040;2023-04-08T02:16:35;102029.41;;;5.14;100.00
20696;BME280;10507;52.754;13.040;2023-04-08T02:19:09;102031.19;;;5.12;100.00
20696;BME280;10507;52.754;13.040;2023-04-08T02:21:43;102044.41;;;5.15;100.00
20696;BME280;10507;52.754;13.040;2023-04-08T02:24:14;102037.34;;;5.11;100.00
20696;BME280;10507;52.754;13.040;2023-04-08T02:26:44;102032.09;;;5.08;100.00
20696;BME280;10507;52.754;13.040;2023-04-08T02:29:15;102026.81;;;5.05;100.00
20696;BME280;10507;52.754;13.040;2023-04-08T02:31:47;102049.72;;;5.12;100.00
20696;BME280;10507;52.754;13.040;2023-04-08T02:34:17;102061.16;;;5.15;100.00
20696;BME280;10507;52.754;13.040;2023-04-08T02:36:51;102060.31;;;5.12;100.00
20696;BME280;10507;52.754;13.040;2023-04-08T02:39:19;102044.41;;;5.09;100.00
20696;BME280;10507;52.754;13.040;2023-04-08T02:41:47;102055.88;;;5.11;100.00
20696;BME280;10507;52.754;13.040;2023-04-08T02:44:15;102069.13;;;5.14;100.00
20696;BME280;10507;52.754;13.040;2023-04-08T02:46:45;102068.22;;;5.16;100.00
20696;BME280;10507;52.754;13.040;2023-04-08T02:49:13;102069.09;;;5.17;100.00
20696;BME280;10507;52.754;13.040;2023-04-08T02:51:41;102074.44;;;5.14;100.00
20696;BME280;10507;52.754;13.040;2023-04-08T02:54:09;102079.69;;;5.15;100.00
20696;BME280;10507;52.754;13.040;2023-04-08T02:56:37;102092.06;;;5.16;100.00
20696;BME280;10507;52.754;13.040;2023-04-08T02:59:05;102096.47;;;5.20;100.00
20696;BME280;10507;52.754;13.040;2023-04-08T03:01:33;102099.97;;;5.23;100.00
20696;BME280;10507;52.754;13.040;2023-04-08T03:04:03;102088.50;;;5.19;100.00
20696;BME280;10507;52.754;13.040;2023-04-08T03:06:31;102101.72;;;5.24;100.00
20696;BME280;10507;52.754;13.040;2023-04-08T03:09:00;102094.66;;;5.26;100.00
20696;BME280;10507;52.754;13.040;2023-04-08T03:11:28;102088.50;;;5.25;100.00
20696;BME280;10507;52.754;13.040;2023-04-08T03:13:56;102073.50;;;5.23;100.00
20696;BME280;10507;52.754;13.040;2023-04-08T03:16:25;102078.81;;;5.18;100.00
20696;BME280;10507;52.754;13.040;2023-04-08T03:18:53;102081.47;;;5.18;100.00
20696;BME280;10507;52.754;13.040;2023-04-08T03:21:23;102083.25;;;5.10;100.00
20696;BME280;10507;52.754;13.040;2023-04-08T03:23:52;102119.41;;;5.15;100.00
20696;BME280;10507;52.754;13.040;2023-04-08T03:26:20;102126.50;;;5.10;100.00
20696;BME280;10507;52.754;13.040;2023-04-08T03:28:48;102137.94;;;5.11;100.00
20696;BME280;10507;52.754;13.040;2023-04-08T03:31:17;102143.28;;;5.08;100.00
20696;BME280;10507;52.754;13.040;2023-04-08T03:33:46;102143.28;;;5.08;100.00
20696;BME280;10507;52.754;13.040;2023-04-08T03:36:14;102161.78;;;5.06;100.00
20696;BME280;10507;52.754;13.040;2023-04-08T03:38:44;102168.00;;;5.07;100.00
20696;BME280;10507;52.754;13.040;2023-04-08T03:41:12;102171.50;;;5.06;100.00
20696;BME280;10507;52.754;13.040;2023-04-08T03:43:40;102190.03;;;5.06;100.00
20696;BME280;10507;52.754;13.040;2023-04-08T03:46:08;102206.81;;;5.09;100.00
20696;BME280;10507;52.754;13.040;2023-04-08T03:48:37;102205.03;;;5.05;100.00
20696;BME280;10507;52.754;13.040;2023-04-08T03:51:05;102213.00;;;5.07;100.00
20696;BME280;10507;52.754;13.040;2023-04-08T03:53:33;102212.09;;;5.03;100.00
20696;BME280;10507;52.754;13.040;2023-04-08T03:56:02;102224.47;;;5.03;100.00
20696;BME280;10507;52.754;13.040;2023-04-08T03:58:30;102231.50;;;5.04;100.00
20696;BME280;10507;52.754;13.040;2023-04-08T04:00:59;102228.00;;;5.05;100.00
20696;BME280;10507;52.754;13.040;2023-04-08T04:03:27;102244.75;;;5.07;100.00
20696;BME280;10507;52.754;13.040;2023-04-08T04:05:55;102226.22;;;5.04;100.00
20696;BME280;10507;52.754;13.040;2023-04-08T04:08:23;102238.59;;;5.05;100.00
20696;BME280;10507;52.754;13.040;2023-04-08T04:10:51;102227.09;;;5.01;100.00
20696;BME280;10507;52.754;13.040;2023-04-08T04:13:21;102245.63;;;5.06;100.00
20696;BME280;10507;52.754;13.040;2023-04-08T04:15:49;102243.88;;;5.08;100.00
20696;BME280;10507;52.754;13.040;2023-04-08T04:18:17;102239.44;;;5.08;100.00
20696;BME280;10507;52.754;13.040;2023-04-08T04:20:45;102230.63;;;5.03;100.00
20696;BME280;10507;52.754;13.040;2023-04-08T04:23:13;102227.13;;;4.98;100.00
20696;BME280;10507;52.754;13.040;2023-04-08T04:25:42;102233.28;;;5.02;100.00
20696;BME280;10507;52.754;13.040;2023-04-08T04:28:10;102249.16;;;5.02;100.00
20696;BME280;10507;52.754;13.040;2023-04-08T04:30:39;102258.88;;;5.01;100.00
20696;BME280;10507;52.754;13.040;2023-04-08T04:33:07;102280.94;;;5.05;100.00
20696;BME280;10507;52.754;13.040;2023-04-08T04:35:35;102285.34;;;5.06;100.00
20696;BME280;10507;52.754;13.040;2023-04-08T04:38:03;102291.53;;;5.05;100.00
20696;BME280;10507;52.754;13.040;2023-04-08T04:40:36;102309.16;;;5.06;100.00
20696;BME280;10507;52.754;13.040;2023-04-08T04:43:04;102311.81;;;5.03;100.00
20696;BME280;10507;52.754;13.040;2023-04-08T04:45:32;102317.13;;;5.03;100.00
20696;BME280;10507;52.754;13.040;2023-04-08T04:48:02;102320.63;;;5.03;100.00
20696;BME280;10507;52.754;13.040;2023-04-08T04:50:30;102325.94;;;5.08;100.00
20696;BME280;10507;52.754;13.040;2023-04-08T04:52:58;102317.09;;;5.07;100.00
20696;BME280;10507;52.754;13.040;2023-04-08T04:55:27;102300.34;;;5.04;100.00
20696;BME280;10507;52.754;13.040;2023-04-08T04:57:55;102311.81;;;5.03;100.00
20696;BME280;10507;52.754;13.040;2023-04-08T05:00:23;102322.38;;;5.04;100.00
20696;BME280;10507;52.754;13.040;2023-04-08T05:02:51;102342.69;;;5.04;100.00
20696;BME280;10507;52.754;13.040;2023-04-08T05:05:21;102340.03;;;5.04;100.00
20696;BME280;10507;52.754;13.040;2023-04-08T05:07:49;102356.81;;;5.03;100.00
20696;BME280;10507;52.754;13.040;2023-04-08T05:10:17;102356.81;;;5.06;100.00
20696;BME280;10507;52.754;13.040;2023-04-08T05:12:46;102353.28;;;5.07;100.00
20696;BME280;10507;52.754;13.040;2023-04-08T05:15:14;102369.19;;;5.11;100.00
20696;BME280;10507;52.754;13.040;2023-04-08T05:17:42;102349.75;;;5.02;100.00
20696;BME280;10507;52.754;13.040;2023-04-08T05:20:10;102372.69;;;5.04;100.00
20696;BME280;10507;52.754;13.040;2023-04-08T05:22:40;102381.50;;;5.02;100.00
20696;BME280;10507;52.754;13.040;2023-04-08T05:25:08;102406.22;;;5.04;100.00
20696;BME280;10507;52.754;13.040;2023-04-08T05:27:37;102421.22;;;5.08;100.00
20696;BME280;10507;52.754;13.040;2023-04-08T05:30:07;102408.88;;;5.00;100.00
20696;BME280;10507;52.754;13.040;2023-04-08T05:32:35;102413.28;;;5.00;100.00
20696;BME280;10507;52.754;13.040;2023-04-08T05:35:04;102422.13;;;5.10;100.00
20696;BME280;10507;52.754;13.040;2023-04-08T05:37:34;102405.34;;;5.09;100.00
20696;BME280;10507;52.754;13.040;2023-04-08T05:40:05;102392.97;;;5.04;100.00
20696;BME280;10507;52.754;13.040;2023-04-08T05:42:34;102397.41;;;5.05;100.00
20696;BME280;10507;52.754;13.040;2023-04-08T05:45:06;102414.19;;;5.10;100.00
20696;BME280;10507;52.754;13.040;2023-04-08T05:47:34;102421.25;;;5.17;100.00
20696;BME280;10507;52.754;13.040;2023-04-08T05:50:03;102437.16;;;5.25;100.00
20696;BME280;10507;52.754;13.040;2023-04-08T05:52:31;102416.81;;;5.22;100.00
20696;BME280;10507;52.754;13.040;2023-04-08T05:54:59;102381.50;;;5.15;100.00
20696;BME280;10507;52.754;13.040;2023-04-08T05:57:28;102395.66;;;5.25;100.00
20696;BME280;10507;52.754;13.040;2023-04-08T05:59:56;102382.41;;;5.22;100.00
20696;BME280;10507;52.754;13.040;2023-04-08T06:02:25;102362.13;;;5.23;100.00
20696;BME280;10507;52.754;13.040;2023-04-08T06:04:54;102363.88;;;5.25;100.00
20696;BME280;10507;52.754;13.040;2023-04-08T06:07:22;102392.13;;;5.32;100.00
20696;BME280;10507;52.754;13.040;2023-04-08T06:09:50;102365.63;;;5.31;100.00
20696;BME280;10507;52.754;13.040;2023-04-08T06:12:18;102363.84;;;5.31;100.00
20696;BME280;10507;52.754;13.040;2023-04-08T06:14:52;102389.47;;;5.41;100.00
20696;BME280;10507;52.754;13.040;2023-04-08T06:17:21;102372.69;;;5.47;100.00
20696;BME280;10507;52.754;13.040;2023-04-08T06:19:49;102401.81;;;5.61;100.00
20696;BME280;10507;52.754;13.040;2023-04-08T06:22:17;102360.31;;;5.58;100.00
20696;BME280;10507;52.754;13.040;2023-04-08T06:24:46;102310.88;;;5.54;100.00
20696;BME280;10507;52.754;13.040;2023-04-08T06:27:14;102299.38;;;5.61;100.00
20696;BME280;10507;52.754;13.040;2023-04-08T06:29:42;102261.38;;;5.58;100.00
20696;BME280;10507;52.754;13.040;2023-04-08T06:32:12;102269.31;;;5.64;100.00
20696;BME280;10507;52.754;13.040;2023-04-08T06:34:40;102264.91;;;5.68;100.00
20696;BME280;10507;52.754;13.040;2023-04-08T06:37:08;102256.03;;;5.75;100.00
20696;BME280;10507;52.754;13.040;2023-04-08T06:39:37;102208.38;;;5.64;100.00
20696;BME280;10507;52.754;13.040;2023-04-08T06:42:05;102218.94;;;5.67;100.00
20696;BME280;10507;52.754;13.040;2023-04-08T06:44:33;102224.25;;;5.72;100.00
20696;BME280;10507;52.754;13.040;2023-04-08T06:47:02;102199.56;;;5.65;100.00
20696;BME280;10507;52.754;13.040;2023-04-08T06:49:32;102196.91;;;5.63;100.00
20696;BME280;10507;52.754;13.040;2023-04-08T06:52:01;102203.06;;;5.70;100.00
20696;BME280;10507;52.754;13.040;2023-04-08T06:54:30;102207.47;;;5.73;100.00
20696;BME280;10507;52.754;13.040;2023-04-08T06:56:59;102218.91;;;5.79;100.00
20696;BME280;10507;52.754;13.040;2023-04-08T06:59:28;102229.44;;;5.92;100.00
20696;BME280;10507;52.754;13.040;2023-04-08T07:01:57;102201.19;;;5.91;100.00
20696;BME280;10507;52.754;13.040;2023-04-08T07:04:25;102207.31;;;6.05;100.00
20696;BME280;10507;52.754;13.040;2023-04-08T07:06:55;102159.69;;;5.94;100.00
20696;BME280;10507;52.754;13.040;2023-04-08T07:09:23;102180.84;;;5.97;100.00
20696;BME280;10507;52.754;13.040;2023-04-08T07:11:52;102183.44;;;6.05;100.00
20696;BME280;10507;52.754;13.040;2023-04-08T07:14:20;102149.00;;;6.00;100.00
20696;BME280;10507;52.754;13.040;2023-04-08T07:16:48;102141.09;;;5.99;100.00
20696;BME280;10507;52.754;13.040;2023-04-08T07:19:16;102165.78;;;6.06;100.00
20696;BME280;10507;52.754;13.040;2023-04-08T07:21:44;102132.22;;;6.01;100.00
20696;BME280;10507;52.754;13.040;2023-04-08T07:24:14;102130.41;;;6.08;100.00
20696;BME280;10507;52.754;13.040;2023-04-08T07:26:42;102151.56;;;6.16;100.00
20696;BME280;10507;52.754;13.040;2023-04-08T07:29:10;102188.56;;;6.31;100.00
20696;BME280;10507;52.754;13.040;2023-04-08T07:31:38;102128.50;;;6.24;100.00
20696;BME280;10507;52.754;13.040;2023-04-08T07:34:06;102108.22;;;6.21;100.00
20696;BME280;10507;52.754;13.040;2023-04-08T07:36:34;102107.34;;;6.19;100.00
20696;BME280;10507;52.754;13.040;2023-04-08T07:39:03;102092.28;;;6.21;100.00
20696;BME280;10507;52.754;13.040;2023-04-08T07:41:32;102082.69;;;6.08;100.00
20696;BME280;10507;52.754;13.040;2023-04-08T07:44:01;102126.75;;;6.24;100.00
20696;BME280;10507;52.754;13.040;2023-04-08T07:46:29;102103.72;;;6.27;100.00
20696;BME280;10507;52.754;13.040;2023-04-08T07:48:57;102109.97;;;6.22;100.00
20696;BME280;10507;52.754;13.040;2023-04-08T07:51:25;102118.75;;;6.29;100.00
20696;BME280;10507;52.754;13.040;2023-04-08T07:53:54;102089.59;;;6.24;100.00
20696;BME280;10507;52.754;13.040;2023-04-08T07:56:22;102109.88;;;6.32;100.00
20696;BME280;10507;52.754;13.040;2023-04-08T07:58:52;102146.84;;;6.50;100.00
20696;BME280;10507;52.754;13.040;2023-04-08T08:01:22;102121.06;;;6.63;100.00
20696;BME280;10507;52.754;13.040;2023-04-08T08:03:50;102115.75;;;6.64;100.00
20696;BME280;10507;52.754;13.040;2023-04-08T08:06:20;102158.00;;;6.87;100.00
20696;BME280;10507;52.754;13.040;2023-04-08T08:08:48;102131.34;;;6.98;100.00
20696;BME280;10507;52.754;13.040;2023-04-08T08:11:16;102101.22;;;6.99;100.00
20696;BME280;10507;52.754;13.040;2023-04-08T08:13:44;102065.06;;;6.87;100.00
20696;BME280;10507;52.754;13.040;2023-04-08T08:16:14;102057.91;;;6.93;100.00
20696;BME280;10507;52.754;13.040;2023-04-08T08:18:42;102038.56;;;6.84;100.00
20696;BME280;10507;52.754;13.040;2023-04-08T08:21:10;102094.94;;;7.06;100.00
20696;BME280;10507;52.754;13.040;2023-04-08T08:23:38;102053.47;;;6.96;100.00
20696;BME280;10507;52.754;13.040;2023-04-08T08:26:08;102013.69;;;6.93;100.00
20696;BME280;10507;52.754;13.040;2023-04-08T08:28:36;102062.97;;;7.16;100.00
20696;BME280;10507;52.754;13.040;2023-04-08T08:31:05;102059.19;;;7.32;100.00
20696;BME280;10507;52.754;13.040;2023-04-08T08:33:34;102036.16;;;7.33;100.00
20696;BME280;10507;52.754;13.040;2023-04-08T08:36:03;102036.94;;;7.39;100.00
20696;BME280;10507;52.754;13.040;2023-04-08T08:38:33;102005.00;;;7.44;100.00
20696;BME280;10507;52.754;13.040;2023-04-08T08:41:02;101999.56;;;7.52;100.00
20696;BME280;10507;52.754;13.040;2023-04-08T08:43:30;102024.22;;;7.61;100.00
20696;BME280;10507;52.754;13.040;2023-04-08T08:46:00;102057.31;;;7.98;100.00
20696;BME280;10507;52.754;13.040;2023-04-08T08:48:30;102061.31;;;8.23;100.00
20696;BME280;10507;52.754;13.040;2023-04-08T08:51:00;101939.50;;;7.93;100.00
20696;BME280;10507;52.754;13.040;2023-04-08T08:53:29;101873.50;;;7.66;100.00
20696;BME280;10507;52.754;13.040;2023-04-08T08:56:01;101998.00;;;7.94;100.00
20696;BME280;10507;52.754;13.040;2023-04-08T08:58:32;101832.28;;;7.44;100.00
20696;BME280;10507;52.754;13.040;2023-04-08T09:01:00;101887.22;;;7.42;100.00
20696;BME280;10507;52.754;13.040;2023-04-08T09:03:28;101928.13;;;7.33;100.00
20696;BME280;10507;52.754;13.040;2023-04-08T09:06:00;101995.19;;;7.49;100.00
20696;BME280;10507;52.754;13.040;2023-04-08T09:08:30;102071.06;;;7.68;100.00
20696;BME280;10507;52.754;13.040;2023-04-08T09:11:13;102103.38;;;8.00;100.00
20696;BME280;10507;52.754;13.040;2023-04-08T09:13:42;102004.28;;;7.88;100.00
20696;BME280;10507;52.754;13.040;2023-04-08T09:16:11;102005.72;;;8.09;100.00
20696;BME280;10507;52.754;13.040;2023-04-08T09:18:40;101944.13;;;7.81;100.00
20696;BME280;10507;52.754;13.040;2023-04-08T09:21:13;102040.31;;;8.08;100.00
20696;BME280;10507;52.754;13.040;2023-04-08T09:23:44;102058.28;;;8.45;100.00
20696;BME280;10507;52.754;13.040;2023-04-08T09:26:14;101952.91;;;8.35;100.00
20696;BME280;10507;52.754;13.040;2023-04-08T09:28:43;101975.09;;;8.33;100.00
20696;BME280;10507;52.754;13.040;2023-04-08T09:31:18;101938.00;;;8.24;100.00
20696;BME280;10507;52.754;13.040;2023-04-08T09:33:48;102064.25;;;8.59;100.00
20696;BME280;10507;52.754;13.040;2023-04-08T09:36:18;102033.19;;;8.60;100.00
20696;BME280;10507;52.754;13.040;2023-04-08T09:38:46;101969.47;;;8.50;100.00
20696;BME280;10507;52.754;13.040;2023-04-08T09:41:16;101932.22;;;8.50;100.00
20696;BME280;10507;52.754;13.040;2023-04-08T09:43:47;101948.16;;;8.52;100.00
20696;BME280;10507;52.754;13.040;2023-04-08T09:46:17;101935.75;;;8.51;100.00
20696;BME280;10507;52.754;13.040;2023-04-08T09:48:49;102005.38;;;8.74;100.00
20696;BME280;10507;52.754;13.040;2023-04-08T09:51:20;101999.88;;;8.82;100.00
20696;BME280;10507;52.754;13.040;2023-04-08T09:53:55;102095.81;;;9.24;100.00
20696;BME280;10507;52.754;13.040;2023-04-08T09:56:35;102080.03;;;9.54;100.00
20696;BME280;10507;52.754;13.040;2023-04-08T09:59:11;101980.44;;;9.56;100.00
20696;BME280;10507;52.754;13.040;2023-04-08T10:01:44;101899.16;;;9.37;100.00
20696;BME280;10507;52.754;13.040;2023-04-08T10:04:15;101862.66;;;9.39;100.00
20696;BME280;10507;52.754;13.040;2023-04-08T10:06:47;101896.28;;;9.46;100.00
20696;BME280;10507;52.754;13.040;2023-04-08T10:09:20;101901.19;;;9.62;99.84
20696;BME280;10507;52.754;13.040;2023-04-08T10:11:49;101851.09;;;9.74;98.39
20696;BME280;10507;52.754;13.040;2023-04-08T10:14:18;101802.00;;;9.49;98.78
20696;BME280;10507;52.754;13.040;2023-04-08T10:16:48;101692.28;;;9.00;99.31
20696;BME280;10507;52.754;13.040;2023-04-08T10:19:35;101881.94;;;9.14;100.00
20696;BME280;10507;52.754;13.040;2023-04-08T10:22:45;101838.31;;;9.19;100.00
20696;BME280;10507;52.754;13.040;2023-04-08T10:25:32;101868.69;;;9.11;100.00
20696;BME280;10507;52.754;13.040;2023-04-08T10:28:01;101794.34;;;9.02;100.00
20696;BME280;10507;52.754;13.040;2023-04-08T10:30:49;101808.63;;;8.98;100.00
20696;BME280;10507;52.754;13.040;2023-04-08T10:33:20;101845.09;;;8.96;100.00
20696;BME280;10507;52.754;13.040;2023-04-08T10:35:52;101875.13;;;9.03;100.00
20696;BME280;10507;52.754;13.040;2023-04-08T10:38:22;101974.72;;;9.36;100.00
20696;BME280;10507;52.754;13.040;2023-04-08T10:40:51;101998.88;;;9.66;100.00
20696;BME280;10507;52.754;13.040;2023-04-08T10:43:20;101895.81;;;9.65;100.00
20696;BME280;10507;52.754;13.040;2023-04-08T10:45:52;101907.34;;;9.65;100.00
20696;BME280;10507;52.754;13.040;2023-04-08T10:48:21;101895.47;;;9.77;99.37
20696;BME280;10507;52.754;13.040;2023-04-08T10:50:53;101845.63;;;9.79;98.71
20696;BME280;10507;52.754;13.040;2023-04-08T10:53:27;101870.13;;;9.93;98.40
20696;BME280;10507;52.754;13.040;2023-04-08T10:56:03;101696.56;;;9.68;97.32
20696;BME280;10507;52.754;13.040;2023-04-08T10:58:32;101678.81;;;9.69;97.05
20696;BME280;10507;52.754;13.040;2023-04-08T11:01:04;101748.44;;;9.89;97.14
20696;BME280;10507;52.754;13.040;2023-04-08T11:03:34;101793.94;;;10.14;95.96
20696;BME280;10507;52.754;13.040;2023-04-08T11:06:04;101806.09;;;10.25;96.10
20696;BME280;10507;52.754;13.040;2023-04-08T11:08:35;101776.41;;;10.35;95.17
20696;BME280;10507;52.754;13.040;2023-04-08T11:11:05;101665.22;;;10.34;94.09
20696;BME280;10507;52.754;13.040;2023-04-08T11:13:35;101644.97;;;10.27;93.94
20696;BME280;10507;52.754;13.040;2023-04-08T11:16:05;101703.25;;;10.43;93.86
20696;BME280;10507;52.754;13.040;2023-04-08T11:18:44;101745.25;;;10.64;93.68
20696;BME280;10507;52.754;13.040;2023-04-08T11:21:12;101659.78;;;10.64;92.62
20696;BME280;10507;52.754;13.040;2023-04-08T11:23:42;101552.63;;;10.48;92.46
20696;BME280;10507;52.754;13.040;2023-04-08T11:26:10;101641.28;;;10.58;92.96
20696;BME280;10507;52.754;13.040;2023-04-08T11:28:38;101659.78;;;10.64;92.46
20696;BME280;10507;52.754;13.040;2023-04-08T11:31:06;101797.66;;;11.21;93.10
20696;BME280;10507;52.754;13.040;2023-04-08T11:33:34;101775.84;;;11.34;92.02
20696;BME280;10507;52.754;13.040;2023-04-08T11:36:03;101580.09;;;11.26;90.56
20696;BME280;10507;52.754;13.040;2023-04-08T11:38:31;101573.69;;;11.30;90.51
20696;BME280;10507;52.754;13.040;2023-04-08T11:41:01;101630.16;;;11.20;90.35
20696;BME280;10507;52.754;13.040;2023-04-08T11:43:29;101569.50;;;11.22;91.23
20696;BME280;10507;52.754;13.040;2023-04-08T11:45:58;101678.16;;;11.49;90.95
20696;BME280;10507;52.754;13.040;2023-04-08T11:48:26;101410.31;;;11.37;88.22
20696;BME280;10507;52.754;13.040;2023-04-08T11:51:03;101325.78;;;10.91;88.02
20696;BME280;10507;52.754;13.040;2023-04-08T11:53:31;101526.56;;;11.27;89.46
20696;BME280;10507;52.754;13.040;2023-04-08T11:58:53;101400.66;;;11.11;89.06
20696;BME280;10507;52.754;13.040;2023-04-08T12:01:21;101532.66;;;11.07;90.96
20696;BME280;10507;52.754;13.040;2023-04-08T12:04:00;101536.38;;;11.03;91.31
20696;BME280;10507;52.754;13.040;2023-04-08T12:06:28;101595.69;;;11.14;91.40
20696;BME280;10507;52.754;13.040;2023-04-08T12:08:57;101512.47;;;11.00;91.11
20696;BME280;10507;52.754;13.040;2023-04-08T12:11:25;101641.47;;;11.29;91.05
20696;BME280;10507;52.754;13.040;2023-04-08T12:13:55;101531.75;;;11.08;91.75
20696;BME280;10507;52.754;13.040;2023-04-08T12:16:23;101436.84;;;10.74;91.45
20696;BME280;10507;52.754;13.040;2023-04-08T12:18:51;101422.69;;;10.72;91.46
20696;BME280;10507;52.754;13.040;2023-04-08T12:21:19;101567.09;;;10.91;92.52
20696;BME280;10507;52.754;13.040;2023-04-08T12:23:47;101532.50;;;10.88;92.06
20696;BME280;10507;52.754;13.040;2023-04-08T12:26:16;101482.56;;;10.90;91.58
20696;BME280;10507;52.754;13.040;2023-04-08T12:28:45;101492.41;;;10.88;91.12
20696;BME280;10507;52.754;13.040;2023-04-08T12:31:14;101519.19;;;11.10;91.04
20696;BME280;10507;52.754;13.040;2023-04-08T12:33:42;101487.59;;;10.98;90.94
20696;BME280;10507;52.754;13.040;2023-04-08T12:36:11;101598.38;;;11.36;90.50
20696;BME280;10507;52.754;13.040;2023-04-08T12:38:39;101707.03;;;11.88;90.79
20696;BME280;10507;52.754;13.040;2023-04-08T12:41:07;101549.03;;;11.91;89.47
20696;BME280;10507;52.754;13.040;2023-04-08T12:43:35;101578.22;;;11.97;89.56
20696;BME280;10507;52.754;13.040;2023-04-08T12:46:04;101574.34;;;11.82;90.77
20696;BME280;10507;52.754;13.040;2023-04-08T12:48:33;101334.88;;;11.29;89.88
20696;BME280;10507;52.754;13.040;2023-04-08T12:51:02;101407.06;;;11.07;91.45
20696;BME280;10507;52.754;13.040;2023-04-08T12:53:30;101509.19;;;11.15;92.30
20696;BME280;10507;52.754;13.040;2023-04-08T12:55:58;101424.50;;;10.94;92.09